createdAt,value
2023-01-19T00:01:09.537Z,100.00
2023-01-19T00:03:36.522Z,100.00
2023-01-19T00:06:07.788Z,100.00
2023-01-19T00:08:35.282Z,100.00
2023-01-19T00:11:02.849Z,100.00
2023-01-19T00:13:29.904Z,100.00
2023-01-19T00:15:57.147Z,100.00
2023-01-19T00:18:24.289Z,100.00
2023-01-19T00:20:51.289Z,100.00
2023-01-19T00:23:18.396Z,100.00
2023-01-19T00:25:45.522Z,100.00
2023-01-19T00:28:15.721Z,100.00
2023-01-19T00:30:44.084Z,100.00
2023-01-19T00:33:12.291Z,100.00
2023-01-19T00:35:39.909Z,100.00
2023-01-19T00:38:06.917Z,100.00
2023-01-19T00:40:33.987Z,100.00
2023-01-19T00:43:01.349Z,100.00
2023-01-19T00:45:28.755Z,100.00
2023-01-19T00:47:55.763Z,100.00
2023-01-19T00:50:30.650Z,100.00
2023-01-19T00:52:59.109Z,100.00
2023-01-19T00:55:27.652Z,100.00
2023-01-19T00:57:54.882Z,100.00
2023-01-19T01:00:22.733Z,100.00
2023-01-19T01:02:52.527Z,100.00
2023-01-19T01:05:20.528Z,100.00
2023-01-19T01:07:47.553Z,100.00
2023-01-19T01:10:17.685Z,100.00
2023-01-19T01:13:20.412Z,100.00
2023-01-19T01:15:32.395Z,100.00
2023-01-19T01:17:59.499Z,100.00
2023-01-19T01:20:28.243Z,100.00
2023-01-19T01:22:56.939Z,100.00
2023-01-19T01:25:26.003Z,100.00
2023-01-19T01:27:53.463Z,100.00
2023-01-19T01:30:21.344Z,100.00
2023-01-19T01:32:48.627Z,100.00
2023-01-19T01:35:16.855Z,100.00
2023-01-19T01:37:43.910Z,100.00
2023-01-19T01:40:16.752Z,100.00
2023-01-19T01:42:44.291Z,100.00
2023-01-19T01:45:43.834Z,100.00
2023-01-19T01:48:17.258Z,100.00
2023-01-19T01:51:07.581Z,100.00
2023-01-19T01:53:37.399Z,100.00
2023-01-19T01:56:09.320Z,100.00
2023-01-19T01:58:38.840Z,100.00
2023-01-19T02:01:07.623Z,100.00
2023-01-19T02:03:34.865Z,100.00
2023-01-19T02:06:05.192Z,100.00
2023-01-19T02:08:46.586Z,100.00
2023-01-19T02:11:13.900Z,100.00
2023-01-19T02:13:42.608Z,100.00
2023-01-19T02:16:11.246Z,100.00
2023-01-19T02:18:38.704Z,100.00
2023-01-19T02:21:23.737Z,100.00
2023-01-19T02:23:53.428Z,100.00
2023-01-19T02:26:24.262Z,100.00
2023-01-19T02:29:05.360Z,100.00
2023-01-19T02:31:34.174Z,100.00
2023-01-19T02:34:02.722Z,100.00
2023-01-19T02:36:37.654Z,100.00
2023-01-19T02:39:06.011Z,100.00
2023-01-19T02:41:39.791Z,100.00
2023-01-19T02:44:10.297Z,100.00
2023-01-19T02:46:38.425Z,100.00
2023-01-19T02:49:05.416Z,100.00
2023-01-19T02:51:33.591Z,100.00
2023-01-19T02:54:11.316Z,100.00
2023-01-19T02:56:42.401Z,100.00
2023-01-19T02:59:40.024Z,100.00
2023-01-19T03:02:34.154Z,100.00
2023-01-19T03:05:57.182Z,100.00
2023-01-19T03:08:50.682Z,100.00
2023-01-19T03:11:17.711Z,100.00
2023-01-19T03:13:56.447Z,100.00
2023-01-19T03:16:25.782Z,100.00
2023-01-19T03:18:56.671Z,100.00
2023-01-19T03:21:27.515Z,100.00
2023-01-19T03:23:59.012Z,100.00
2023-01-19T03:26:29.496Z,100.00
2023-01-19T03:28:59.880Z,100.00
2023-01-19T03:31:31.487Z,100.00
2023-01-19T03:34:03.510Z,100.00
2023-01-19T03:36:35.918Z,100.00
2023-01-19T03:39:05.589Z,100.00
2023-01-19T03:41:34.245Z,100.00
2023-01-19T03:44:02.323Z,100.00
2023-01-19T03:46:30.807Z,100.00
2023-01-19T03:48:59.235Z,100.00
2023-01-19T03:51:26.960Z,100.00
2023-01-19T03:53:54.006Z,100.00
2023-01-19T03:56:23.727Z,100.00
2023-01-19T03:58:51.523Z,100.00
2023-01-19T04:01:19.751Z,100.00
2023-01-19T04:03:46.784Z,100.00
2023-01-19T04:06:13.921Z,100.00
2023-01-19T04:08:40.965Z,100.00
2023-01-19T04:11:07.988Z,100.00
2023-01-19T04:13:35.608Z,100.00
2023-01-19T04:16:04.260Z,100.00
2023-01-19T04:18:34.700Z,100.00
2023-01-19T04:21:03.366Z,100.00
2023-01-19T04:23:30.900Z,100.00
2023-01-19T04:26:05.016Z,100.00
2023-01-19T04:28:33.757Z,100.00
2023-01-19T04:31:01.105Z,100.00
2023-01-19T04:33:28.296Z,100.00
2023-01-19T04:35:55.896Z,100.00
2023-01-19T04:38:24.595Z,100.00
2023-01-19T04:40:53.038Z,100.00
2023-01-19T04:43:20.865Z,100.00
2023-01-19T04:45:48.364Z,100.00
2023-01-19T04:48:15.859Z,100.00
2023-01-19T04:50:42.873Z,100.00
2023-01-19T04:53:10.391Z,100.00
2023-01-19T04:55:38.026Z,100.00
2023-01-19T04:58:05.178Z,100.00
2023-01-19T05:00:32.308Z,100.00
2023-01-19T05:02:59.965Z,100.00
2023-01-19T05:05:27.294Z,100.00
2023-01-19T05:07:54.519Z,100.00
2023-01-19T05:10:21.632Z,100.00
2023-01-19T05:12:48.688Z,100.00
2023-01-19T05:15:15.791Z,100.00
2023-01-19T05:17:42.828Z,100.00
2023-01-19T05:20:12.221Z,100.00
2023-01-19T05:22:40.024Z,100.00
2023-01-19T05:25:08.021Z,100.00
2023-01-19T05:27:36.339Z,100.00
2023-01-19T05:30:03.885Z,100.00
2023-01-19T05:32:30.890Z,100.00
2023-01-19T05:34:58.017Z,100.00
2023-01-19T05:37:25.088Z,100.00
2023-01-19T05:39:52.635Z,100.00
2023-01-19T05:42:19.732Z,100.00
2023-01-19T05:44:46.878Z,100.00
2023-01-19T05:47:13.993Z,100.00
2023-01-19T05:49:41.150Z,100.00
2023-01-19T05:52:08.259Z,100.00
2023-01-19T05:54:35.289Z,100.00
2023-01-19T05:57:02.293Z,100.00
2023-01-19T05:59:29.435Z,100.00
2023-01-19T06:01:56.483Z,100.00
2023-01-19T06:04:23.647Z,100.00
2023-01-19T06:06:51.200Z,100.00
2023-01-19T06:09:18.540Z,100.00
2023-01-19T06:11:46.094Z,100.00
2023-01-19T06:14:13.302Z,100.00
2023-01-19T06:16:41.650Z,100.00
2023-01-19T06:19:09.255Z,100.00
2023-01-19T06:21:36.355Z,100.00
2023-01-19T06:24:03.750Z,100.00
2023-01-19T06:26:30.788Z,100.00
2023-01-19T06:28:57.921Z,100.00
2023-01-19T06:31:24.965Z,100.00
2023-01-19T06:33:52.033Z,100.00
2023-01-19T06:36:19.045Z,100.00
2023-01-19T06:38:46.078Z,100.00
2023-01-19T06:41:13.121Z,100.00
2023-01-19T06:43:40.291Z,100.00
2023-01-19T06:46:07.469Z,100.00
2023-01-19T06:48:34.990Z,100.00
2023-01-19T06:51:02.405Z,100.00
2023-01-19T06:53:29.445Z,100.00
2023-01-19T06:56:00.801Z,100.00
2023-01-19T06:58:29.303Z,100.00
2023-01-19T07:01:07.357Z,100.00
2023-01-19T07:03:35.678Z,100.00
2023-01-19T07:06:02.811Z,100.00
2023-01-19T07:08:30.239Z,100.00
2023-01-19T07:11:26.946Z,100.00
2023-01-19T07:13:55.777Z,100.00
2023-01-19T07:16:23.033Z,100.00
2023-01-19T07:18:50.345Z,100.00
2023-01-19T07:21:18.180Z,100.00
2023-01-19T07:23:49.240Z,100.00
2023-01-19T07:26:16.429Z,100.00
2023-01-19T07:28:43.469Z,100.00
2023-01-19T07:31:11.049Z,100.00
2023-01-19T07:33:38.256Z,100.00
2023-01-19T07:36:05.484Z,100.00
2023-01-19T07:38:32.530Z,100.00
2023-01-19T07:41:01.119Z,100.00
2023-01-19T07:43:28.251Z,100.00
2023-01-19T07:45:59.659Z,100.00
2023-01-19T07:48:27.721Z,100.00
2023-01-19T07:51:00.035Z,100.00
2023-01-19T07:53:27.233Z,100.00
2023-01-19T07:55:55.700Z,99.99
2023-01-19T07:58:24.442Z,99.88
2023-01-19T08:00:51.565Z,98.96
2023-01-19T08:03:18.701Z,98.80
2023-01-19T08:05:51.459Z,98.48
2023-01-19T08:08:19.035Z,98.14
2023-01-19T08:10:49.902Z,98.19
2023-01-19T08:13:16.967Z,97.52
2023-01-19T08:15:44.249Z,97.72
2023-01-19T08:18:11.279Z,97.39
2023-01-19T08:20:38.368Z,97.96
2023-01-19T08:23:05.380Z,97.43
2023-01-19T08:25:37.598Z,97.75
2023-01-19T08:28:06.413Z,97.51
2023-01-19T08:30:34.474Z,97.26
2023-01-19T08:33:02.041Z,96.77
2023-01-19T08:35:33.829Z,97.00
2023-01-19T08:38:00.861Z,96.92
2023-01-19T08:40:33.473Z,96.65
2023-01-19T08:43:02.231Z,95.99
2023-01-19T08:45:29.700Z,95.89
2023-01-19T08:47:57.453Z,95.96
2023-01-19T08:50:32.184Z,95.60
2023-01-19T08:53:01.415Z,95.38
2023-01-19T08:55:29.528Z,95.62
2023-01-19T08:57:57.752Z,95.31
2023-01-19T09:00:25.780Z,95.51
2023-01-19T09:02:53.673Z,95.20
2023-01-19T09:05:20.735Z,94.74
2023-01-19T09:07:47.880Z,94.45
2023-01-19T09:10:16.444Z,94.55
2023-01-19T09:12:43.861Z,94.58
2023-01-19T09:15:12.058Z,93.54
2023-01-19T09:17:39.864Z,93.60
2023-01-19T09:20:07.396Z,92.01
2023-01-19T09:22:34.652Z,91.58
2023-01-19T09:25:01.802Z,92.08
2023-01-19T09:27:28.837Z,91.47
2023-01-19T09:29:55.911Z,90.67
2023-01-19T09:32:22.946Z,90.26
2023-01-19T09:34:49.956Z,90.21
2023-01-19T09:37:17.061Z,90.76
2023-01-19T09:39:44.094Z,89.46
2023-01-19T09:42:29.704Z,89.84
2023-01-19T09:44:57.032Z,89.40
2023-01-19T09:47:28.319Z,88.28
2023-01-19T09:50:04.070Z,87.48
2023-01-19T09:52:35.890Z,87.86
2023-01-19T09:55:02.861Z,87.53
2023-01-19T09:57:36.011Z,87.62
2023-01-19T10:00:14.506Z,87.17
2023-01-19T10:02:47.676Z,86.52
2023-01-19T10:05:31.680Z,86.46
2023-01-19T10:08:14.923Z,86.16
2023-01-19T10:10:47.925Z,85.72
2023-01-19T10:13:14.994Z,85.47
2023-01-19T10:16:19.371Z,85.67
2023-01-19T10:18:51.755Z,86.12
2023-01-19T10:21:27.727Z,85.82
2023-01-19T10:24:23.495Z,85.02
2023-01-19T10:26:53.464Z,84.34
2023-01-19T10:29:35.135Z,84.15
2023-01-19T10:32:09.927Z,84.87
2023-01-19T10:34:37.167Z,84.86
2023-01-19T10:37:15.214Z,84.69
2023-01-19T10:39:43.219Z,84.31
2023-01-19T10:42:15.235Z,83.98
2023-01-19T10:44:44.308Z,84.14
2023-01-19T10:47:25.930Z,84.44
2023-01-19T10:49:53.096Z,84.16
2023-01-19T10:52:37.159Z,83.98
2023-01-19T10:55:07.819Z,84.10
2023-01-19T10:57:41.687Z,84.69
2023-01-19T11:00:30.382Z,85.64
2023-01-19T11:02:57.559Z,86.29
2023-01-19T11:05:28.417Z,86.51
2023-01-19T11:07:55.785Z,85.33
2023-01-19T11:10:25.307Z,86.06
2023-01-19T11:13:10.353Z,86.25
2023-01-19T11:15:51.342Z,86.66
2023-01-19T11:18:28.542Z,86.42
2023-01-19T11:20:59.152Z,85.62
2023-01-19T11:23:29.545Z,85.59
2023-01-19T11:25:59.034Z,86.28
2023-01-19T11:28:39.512Z,87.11
2023-01-19T11:31:15.885Z,87.19
2023-01-19T11:33:56.126Z,87.57
2023-01-19T11:36:25.506Z,88.17
2023-01-19T11:38:58.700Z,88.85
2023-01-19T11:41:33.407Z,89.17
2023-01-19T11:44:22.612Z,89.92
2023-01-19T11:46:55.551Z,90.37
2023-01-19T11:49:44.410Z,90.84
2023-01-19T11:52:30.173Z,91.68
2023-01-19T11:55:16.669Z,91.93
2023-01-19T11:57:47.608Z,92.22
2023-01-19T12:00:38.081Z,92.08
2023-01-19T12:03:13.028Z,92.47
2023-01-19T12:05:47.269Z,92.83
2023-01-19T12:08:31.789Z,92.73
2023-01-19T12:11:00.393Z,93.15
2023-01-19T12:13:28.520Z,93.72
2023-01-19T12:16:03.875Z,94.17
2023-01-19T12:18:36.774Z,94.37
2023-01-19T12:21:04.405Z,94.39
2023-01-19T12:24:01.981Z,94.48
2023-01-19T12:26:32.562Z,94.82
2023-01-19T12:29:15.127Z,95.13
2023-01-19T12:31:42.642Z,95.81
2023-01-19T12:34:25.007Z,96.18
2023-01-19T12:36:55.390Z,96.89
2023-01-19T12:39:23.460Z,96.77
2023-01-19T12:42:04.487Z,96.94
2023-01-19T12:44:32.750Z,97.48
2023-01-19T12:47:15.023Z,97.64
2023-01-19T12:49:48.175Z,97.75
2023-01-19T12:52:27.537Z,97.88
2023-01-19T12:55:14.238Z,98.57
2023-01-19T12:57:50.155Z,98.72
2023-01-19T13:00:23.168Z,99.27
2023-01-19T13:02:53.864Z,99.10
2023-01-19T13:05:32.947Z,99.32
2023-01-19T13:08:06.541Z,99.08
2023-01-19T13:10:55.370Z,99.64
2023-01-19T13:13:28.322Z,99.43
2023-01-19T13:15:57.817Z,99.36
2023-01-19T13:18:28.207Z,98.81
2023-01-19T13:20:55.236Z,98.83
2023-01-19T13:23:49.369Z,99.10
2023-01-19T13:26:20.815Z,98.74
2023-01-19T13:28:56.785Z,99.24
2023-01-19T13:31:35.001Z,99.24
2023-01-19T13:34:03.736Z,98.96
2023-01-19T13:36:34.349Z,98.67
2023-01-19T13:39:05.327Z,97.90
2023-01-19T13:41:37.397Z,97.01
2023-01-19T13:44:14.751Z,96.27
2023-01-19T13:46:42.418Z,96.31
2023-01-19T13:49:20.923Z,96.67
2023-01-19T13:52:11.322Z,96.98
2023-01-19T13:54:47.759Z,97.00
2023-01-19T13:57:44.652Z,97.27
2023-01-19T14:00:11.806Z,97.54
2023-01-19T14:02:40.242Z,97.85
2023-01-19T14:05:36.247Z,97.76
2023-01-19T14:08:06.676Z,97.57
2023-01-19T14:10:35.328Z,97.71
2023-01-19T14:13:05.582Z,97.78
2023-01-19T14:15:34.753Z,98.10
2023-01-19T14:18:16.896Z,98.09
2023-01-19T14:20:59.236Z,97.76
2023-01-19T14:23:40.692Z,97.50
2023-01-19T14:26:47.733Z,97.51
2023-01-19T14:29:31.761Z,97.39
2023-01-19T14:32:24.336Z,97.05
2023-01-19T14:34:57.759Z,97.50
2023-01-19T14:37:30.794Z,97.27
2023-01-19T14:40:04.200Z,97.12
2023-01-19T14:42:36.083Z,97.64
2023-01-19T14:45:08.472Z,97.92
2023-01-19T14:47:41.573Z,97.98
2023-01-19T14:50:25.449Z,98.11
2023-01-19T14:52:57.453Z,98.21
2023-01-19T14:55:47.364Z,98.53
2023-01-19T14:58:19.239Z,98.59
2023-01-19T15:00:47.828Z,98.63
2023-01-19T15:03:15.782Z,98.51
2023-01-19T15:05:45.803Z,98.66
2023-01-19T15:08:30.059Z,98.92
2023-01-19T15:10:58.233Z,98.70
2023-01-19T15:13:27.359Z,98.67
2023-01-19T15:15:54.450Z,98.73
2023-01-19T15:18:26.786Z,98.95
2023-01-19T15:20:54.268Z,99.31
2023-01-19T15:23:21.339Z,99.68
2023-01-19T15:25:49.766Z,99.53
2023-01-19T15:28:19.017Z,99.63
2023-01-19T15:30:46.156Z,99.93
2023-01-19T15:33:26.139Z,100.00
2023-01-19T15:35:54.040Z,100.00
2023-01-19T15:38:21.136Z,100.00
2023-01-19T15:40:51.444Z,100.00
2023-01-19T15:43:18.792Z,100.00
2023-01-19T15:46:14.874Z,100.00
2023-01-19T15:48:42.428Z,100.00
2023-01-19T15:51:18.726Z,100.00
2023-01-19T15:53:46.236Z,100.00
2023-01-19T15:56:40.004Z,100.00
2023-01-19T15:59:07.128Z,100.00
2023-01-19T16:01:34.387Z,100.00
2023-01-19T16:04:04.498Z,100.00
2023-01-19T16:06:32.581Z,100.00
2023-01-19T16:08:59.731Z,100.00
2023-01-19T16:11:29.209Z,100.00
2023-01-19T16:13:56.282Z,100.00
2023-01-19T16:16:25.431Z,100.00
2023-01-19T16:18:52.565Z,100.00
2023-01-19T16:21:19.648Z,100.00
2023-01-19T16:23:46.694Z,100.00
2023-01-19T16:26:35.123Z,100.00
2023-01-19T16:29:05.746Z,100.00
2023-01-19T16:31:32.827Z,100.00
2023-01-19T16:33:59.906Z,100.00
2023-01-19T16:36:30.446Z,100.00
2023-01-19T16:39:06.410Z,100.00
2023-01-19T16:41:34.812Z,100.00
2023-01-19T16:44:02.787Z,100.00
2023-01-19T16:46:33.067Z,100.00
2023-01-19T16:49:03.412Z,100.00
2023-01-19T16:51:31.094Z,100.00
2023-01-19T16:53:58.283Z,100.00
2023-01-19T16:56:25.393Z,100.00
2023-01-19T16:58:56.716Z,100.00
2023-01-19T17:01:25.541Z,100.00
2023-01-19T17:03:53.136Z,100.00
2023-01-19T17:06:22.139Z,100.00
2023-01-19T17:08:49.885Z,100.00
2023-01-19T17:11:22.968Z,100.00
2023-01-19T17:13:53.530Z,100.00
2023-01-19T17:16:21.401Z,100.00
2023-01-19T17:18:48.532Z,100.00
2023-01-19T17:21:16.006Z,100.00
2023-01-19T17:23:45.212Z,100.00
2023-01-19T17:26:12.818Z,100.00
2023-01-19T17:28:40.238Z,100.00
2023-01-19T17:31:18.810Z,100.00
2023-01-19T17:33:47.876Z,100.00
2023-01-19T17:36:17.143Z,100.00
2023-01-19T17:38:44.584Z,100.00
2023-01-19T17:41:24.185Z,100.00
2023-01-19T17:43:52.249Z,100.00
2023-01-19T17:46:21.921Z,100.00
2023-01-19T17:49:00.361Z,100.00
2023-01-19T17:51:29.141Z,100.00
2023-01-19T17:53:56.862Z,100.00
2023-01-19T17:56:27.273Z,100.00
2023-01-19T17:58:54.518Z,100.00
2023-01-19T18:01:25.145Z,100.00
2023-01-19T18:03:53.033Z,100.00
2023-01-19T18:06:23.094Z,100.00
2023-01-19T18:08:50.813Z,100.00
2023-01-19T18:11:20.907Z,100.00
2023-01-19T18:13:51.070Z,100.00
2023-01-19T18:16:22.652Z,100.00
2023-01-19T18:18:50.471Z,100.00
2023-01-19T18:21:18.009Z,100.00
2023-01-19T18:23:45.259Z,100.00
2023-01-19T18:26:15.305Z,100.00
2023-01-19T18:28:42.496Z,100.00
2023-01-19T18:31:12.343Z,100.00
2023-01-19T18:33:40.361Z,100.00
2023-01-19T18:36:08.786Z,100.00
2023-01-19T18:38:37.037Z,100.00
2023-01-19T18:41:13.036Z,100.00
2023-01-19T18:43:40.546Z,100.00
2023-01-19T18:46:08.682Z,100.00
2023-01-19T18:48:37.238Z,100.00
2023-01-19T18:51:10.251Z,100.00
2023-01-19T18:53:38.480Z,100.00
2023-01-19T18:56:06.413Z,100.00
2023-01-19T18:58:36.516Z,100.00
2023-01-19T19:01:04.596Z,100.00
2023-01-19T19:03:31.868Z,100.00
2023-01-19T19:06:02.980Z,100.00
2023-01-19T19:08:30.225Z,100.00
2023-01-19T19:10:57.361Z,100.00
2023-01-19T19:13:24.498Z,100.00
2023-01-19T19:15:51.677Z,100.00
2023-01-19T19:18:18.953Z,100.00
2023-01-19T19:20:46.170Z,100.00
2023-01-19T19:23:13.324Z,100.00
2023-01-19T19:25:40.390Z,100.00
2023-01-19T19:28:07.777Z,100.00
2023-01-19T19:30:34.987Z,100.00
2023-01-19T19:33:02.091Z,100.00
2023-01-19T19:35:29.111Z,100.00
2023-01-19T19:37:56.154Z,100.00
2023-01-19T19:40:27.375Z,100.00
2023-01-19T19:42:55.888Z,100.00
2023-01-19T19:45:24.720Z,100.00
2023-01-19T19:47:51.797Z,100.00
2023-01-19T19:50:19.022Z,100.00
2023-01-19T19:52:46.198Z,100.00
2023-01-19T19:55:13.454Z,100.00
2023-01-19T19:57:40.701Z,100.00
2023-01-19T20:00:08.524Z,100.00
2023-01-19T20:02:38.608Z,100.00
2023-01-19T20:05:06.139Z,100.00
2023-01-19T20:07:33.278Z,100.00
2023-01-19T20:10:00.367Z,100.00
2023-01-19T20:12:27.637Z,100.00
2023-01-19T20:14:57.799Z,100.00
2023-01-19T20:17:33.999Z,100.00
2023-01-19T20:20:01.192Z,100.00
2023-01-19T20:22:28.269Z,100.00
2023-01-19T20:24:55.367Z,100.00
2023-01-19T20:27:22.465Z,100.00
2023-01-19T20:29:52.896Z,100.00
2023-01-19T20:32:20.126Z,100.00
2023-01-19T20:34:47.255Z,100.00
2023-01-19T20:37:14.906Z,100.00
2023-01-19T20:39:42.077Z,100.00
2023-01-19T20:42:09.252Z,100.00
2023-01-19T20:44:36.669Z,100.00
2023-01-19T20:47:05.850Z,100.00
2023-01-19T20:49:33.745Z,100.00
2023-01-19T20:52:00.892Z,100.00
2023-01-19T20:54:28.697Z,100.00
2023-01-19T20:56:57.043Z,100.00
2023-01-19T20:59:24.359Z,100.00
2023-01-19T21:01:51.989Z,100.00
2023-01-19T21:04:19.390Z,100.00
2023-01-19T21:06:46.524Z,100.00
2023-01-19T21:09:13.611Z,100.00
2023-01-19T21:11:40.739Z,100.00
2023-01-19T21:14:07.994Z,100.00
2023-01-19T21:16:36.085Z,100.00
2023-01-19T21:19:04.279Z,100.00
2023-01-19T21:21:32.089Z,100.00
2023-01-19T21:24:01.984Z,100.00
2023-01-19T21:26:29.336Z,100.00
2023-01-19T21:29:01.043Z,100.00
2023-01-19T21:31:28.638Z,100.00
2023-01-19T21:33:57.279Z,100.00
2023-01-19T21:36:24.932Z,100.00
2023-01-19T21:38:51.993Z,100.00
2023-01-19T21:41:19.194Z,100.00
2023-01-19T21:43:46.624Z,100.00
2023-01-19T21:46:21.198Z,100.00
2023-01-19T21:48:48.503Z,100.00
2023-01-19T21:51:15.843Z,100.00
2023-01-19T21:53:43.039Z,100.00
2023-01-19T21:56:11.149Z,100.00
2023-01-19T21:58:38.646Z,100.00
2023-01-19T22:01:08.631Z,100.00
2023-01-19T22:03:36.053Z,100.00
2023-01-19T22:06:08.619Z,100.00
2023-01-19T22:08:36.104Z,100.00
2023-01-19T22:11:08.821Z,100.00
2023-01-19T22:13:36.607Z,100.00
2023-01-19T22:16:05.922Z,100.00
2023-01-19T22:18:34.644Z,100.00
2023-01-19T22:21:14.236Z,100.00
2023-01-19T22:23:42.003Z,100.00
2023-01-19T22:26:10.904Z,100.00
2023-01-19T22:28:38.331Z,100.00
2023-01-19T22:31:11.714Z,100.00
2023-01-19T22:33:39.643Z,100.00
2023-01-19T22:36:23.413Z,100.00
2023-01-19T22:38:56.334Z,100.00
2023-01-19T22:41:26.149Z,100.00
2023-01-19T22:43:58.722Z,100.00
2023-01-19T22:46:28.664Z,100.00
2023-01-19T22:48:57.102Z,100.00
2023-01-19T22:51:25.953Z,100.00
2023-01-19T22:53:53.097Z,100.00
2023-01-19T22:56:23.188Z,100.00
2023-01-19T22:58:50.737Z,100.00
2023-01-19T23:01:24.256Z,100.00
2023-01-19T23:03:52.281Z,100.00
2023-01-19T23:06:22.323Z,100.00
2023-01-19T23:08:50.406Z,100.00
2023-01-19T23:11:20.110Z,100.00
2023-01-19T23:13:47.822Z,100.00
2023-01-19T23:16:15.050Z,100.00
2023-01-19T23:18:42.960Z,100.00
2023-01-19T23:21:16.558Z,100.00
2023-01-19T23:23:44.327Z,100.00
2023-01-19T23:26:17.515Z,100.00
2023-01-19T23:28:45.682Z,100.00
2023-01-19T23:31:19.846Z,100.00
2023-01-19T23:33:46.950Z,100.00
2023-01-19T23:36:14.812Z,100.00
2023-01-19T23:38:42.635Z,100.00
2023-01-19T23:41:09.627Z,100.00
2023-01-19T23:43:36.666Z,100.00
2023-01-19T23:46:05.614Z,100.00
2023-01-19T23:48:33.939Z,100.00
2023-01-19T23:51:23.085Z,100.00
2023-01-19T23:53:50.804Z,100.00
2023-01-19T23:56:22.769Z,100.00
2023-01-19T23:58:58.421Z,100.00
